Time;durP1;ratioP1;P1;durP2;ratioP2;P2;SDS_P1;SDS_P2;PMS_P1;PMS_P2;Temp;Humidity;BMP_temperature;BMP_pressure;BME280_temperature;BME280_humidity;BME280_pressure;Samples;Min_cycle;Max_cycle;Signal;HPM_P1;HPM_P2
2023/11/05 00:00:10;;;;;;;2.50;1.97;;;;;;;8.39;86.95;97656.06;5052420;28;20249;-73
2023/11/05 00:02:40;;;;;;;2.63;1.60;;;;;;;8.40;86.72;97646.31;5050868;28;20234;-73
2023/11/05 00:05:08;;;;;;;2.23;2.03;;;;;;;8.42;86.50;97654.53;5051973;28;20300;-73
2023/11/05 00:07:35;;;;;;;3.10;1.90;;;;;;;8.43;86.82;97664.69;5051542;28;20298;-73
2023/11/05 00:10:04;;;;;;;2.10;1.90;;;;;;;8.43;86.52;97658.69;5046604;28;20225;-73
2023/11/05 00:12:30;;;;;;;2.40;1.80;;;;;;;8.44;86.60;97662.81;5054104;28;20294;-73
2023/11/05 00:14:56;;;;;;;1.77;1.60;;;;;;;8.45;87.07;97674.84;5054627;28;20205;-73
2023/11/05 00:17:23;;;;;;;3.40;1.63;;;;;;;8.46;86.80;97678.94;5056965;28;20213;-73
2023/11/05 00:19:50;;;;;;;2.00;1.83;;;;;;;8.48;86.56;97681.94;5050497;28;20205;-73
2023/11/05 00:22:18;;;;;;;2.70;2.07;;;;;;;8.47;86.54;97686.47;5055351;28;20225;-73
2023/11/05 00:24:44;;;;;;;1.73;1.30;;;;;;;8.50;86.54;97693.56;5050410;28;20212;-72
2023/11/05 00:27:11;;;;;;;2.50;1.50;;;;;;;8.51;86.74;97689.06;5049558;28;20210;-73
2023/11/05 00:29:37;;;;;;;2.47;1.73;;;;;;;8.51;86.79;97694.34;5052105;28;20575;-73
2023/11/05 00:32:04;;;;;;;2.67;1.90;;;;;;;8.51;86.48;97695.09;5032285;28;20744;-73
2023/11/05 00:34:30;;;;;;;2.30;1.90;;;;;;;8.54;86.51;97699.59;5053394;28;20213;-73
2023/11/05 00:36:58;;;;;;;2.27;1.87;;;;;;;8.53;86.56;97695.47;5039229;28;20217;-72
2023/11/05 00:39:24;;;;;;;2.60;1.53;;;;;;;8.55;86.37;97685.28;5032198;28;20224;-73
2023/11/05 00:41:51;;;;;;;2.63;1.90;;;;;;;8.57;86.75;97692.81;5049769;28;20233;-72
2023/11/05 00:44:17;;;;;;;3.30;1.83;;;;;;;8.58;87.49;97692.44;5047449;28;20210;-73
2023/11/05 00:46:43;;;;;;;2.67;1.70;;;;;;;8.59;86.77;97686.03;5032827;28;20523;-73
2023/11/05 00:49:10;;;;;;;2.07;1.60;;;;;;;8.61;86.38;97686.44;5029918;28;20203;-73
2023/11/05 00:51:36;;;;;;;1.70;1.60;;;;;;;8.61;86.78;97680.41;5031112;28;20768;-73
2023/11/05 00:54:04;;;;;;;2.97;1.70;;;;;;;8.62;86.58;97682.66;5046795;28;20227;-73
2023/11/05 00:56:31;;;;;;;1.83;1.47;;;;;;;8.63;87.33;97678.13;5029826;28;20209;-73
2023/11/05 00:58:57;;;;;;;5.87;1.87;;;;;;;8.64;86.27;97688.28;5044388;28;20218;-72
2023/11/05 01:01:24;;;;;;;2.63;1.47;;;;;;;8.64;86.41;97677.75;5031641;28;20237;-73
2023/11/05 01:03:50;;;;;;;1.80;1.30;;;;;;;8.66;86.29;97686.03;5053584;28;20230;-73
2023/11/05 01:06:16;;;;;;;1.70;1.60;;;;;;;8.68;86.06;97680.38;5034440;28;20212;-73
2023/11/05 01:08:43;;;;;;;2.40;1.50;;;;;;;8.69;85.32;97677.34;5032306;28;20206;-73
2023/11/05 01:11:10;;;;;;;2.10;1.90;;;;;;;8.70;85.58;97668.34;5030124;28;20238;-73
2023/11/05 01:13:37;;;;;;;2.97;1.60;;;;;;;8.72;86.51;97660.06;5033599;28;20696;-73
2023/11/05 01:16:04;;;;;;;2.17;1.30;;;;;;;8.74;85.86;97661.19;5049403;28;20219;-73
2023/11/05 01:18:31;;;;;;;5.77;1.63;;;;;;;8.76;85.71;97652.91;5050047;28;20739;-73
2023/11/05 01:20:57;;;;;;;2.00;1.50;;;;;;;8.75;86.05;97654.78;5050539;28;20222;-73
2023/11/05 01:23:23;;;;;;;2.10;1.47;;;;;;;8.76;86.07;97647.66;5029943;28;20603;-73
2023/11/05 01:25:51;;;;;;;1.60;1.33;;;;;;;8.77;86.23;97657.78;5047761;28;20211;-73
2023/11/05 01:28:18;;;;;;;1.87;1.40;;;;;;;8.79;85.44;97652.13;5032930;28;20206;-73
2023/11/05 01:30:45;;;;;;;1.97;1.70;;;;;;;8.79;85.47;97645.00;5032771;28;20252;-73
2023/11/05 01:33:12;;;;;;;3.33;1.50;;;;;;;8.82;85.90;97656.63;5049864;28;20198;-73
2023/11/05 01:35:39;;;;;;;1.33;1.23;;;;;;;8.83;85.94;97656.25;5025801;28;20222;-72
2023/11/05 01:38:06;;;;;;;2.07;1.50;;;;;;;8.85;86.22;97643.44;5040388;28;20207;-73
2023/11/05 01:40:33;;;;;;;1.70;1.20;;;;;;;8.87;85.81;97648.34;5046426;28;20229;-73
2023/11/05 01:43:00;;;;;;;1.40;1.27;;;;;;;8.87;85.92;97650.97;5036278;28;20229;-73
2023/11/05 01:45:28;;;;;;;1.20;1.10;;;;;;;8.88;85.54;97640.06;5029221;28;20560;-72
2023/11/05 01:47:54;;;;;;;1.40;1.20;;;;;;;8.90;84.94;97637.06;5041452;28;20214;-73
2023/11/05 01:50:21;;;;;;;2.07;1.07;;;;;;;8.92;84.86;97650.56;5031648;28;20227;-73
2023/11/05 01:52:48;;;;;;;1.20;1.00;;;;;;;8.92;84.26;97646.06;5033598;28;20207;-73
2023/11/05 01:55:15;;;;;;;1.43;1.20;;;;;;;8.94;84.00;97658.81;5033446;28;20214;-73
2023/11/05 01:57:42;;;;;;;1.67;1.27;;;;;;;8.94;85.15;97662.22;5029803;28;20804;-73
2023/11/05 02:00:11;;;;;;;2.20;1.60;;;;;;;8.95;86.08;97663.69;5036070;28;20790;-73
2023/11/05 02:02:42;;;;;;;1.60;1.10;;;;;;;8.96;85.61;97654.66;5028445;28;20246;-73
2023/11/05 02:05:10;;;;;;;1.40;1.30;;;;;;;8.95;85.52;97649.81;5047569;28;20643;-73
2023/11/05 02:07:36;;;;;;;1.50;1.40;;;;;;;8.95;85.84;97652.44;5032924;28;20703;-73
2023/11/05 02:10:03;;;;;;;1.60;1.37;;;;;;;8.96;85.69;97649.41;5048104;28;20219;-73
2023/11/05 02:12:30;;;;;;;1.37;1.27;;;;;;;8.96;85.59;97648.66;5050415;28;20225;-73
2023/11/05 02:14:56;;;;;;;1.40;1.30;;;;;;;8.95;86.06;97645.28;5037092;28;20211;-73
2023/11/05 02:17:24;;;;;;;2.03;1.37;;;;;;;8.94;85.97;97637.75;5037768;28;20203;-73
2023/11/05 02:19:52;;;;;;;2.53;1.43;;;;;;;8.94;85.99;97640.41;5037560;28;20316;-73
2023/11/05 02:22:21;;;;;;;2.73;1.30;;;;;;;8.94;86.81;97635.91;5046754;28;20205;-72
2023/11/05 02:24:49;;;;;;;1.40;1.30;;;;;;;8.93;86.16;97631.78;5050286;28;20277;-73
2023/11/05 02:27:15;;;;;;;3.40;1.50;;;;;;;8.92;86.03;97629.50;5047697;28;20206;-73
2023/11/05 02:29:41;;;;;;;2.40;1.43;;;;;;;8.93;86.26;97636.28;5033271;28;20311;-73
2023/11/05 02:32:08;;;;;;;2.90;1.70;;;;;;;8.92;86.52;97634.78;5036756;28;20202;-73
2023/11/05 02:34:34;;;;;;;2.00;1.50;;;;;;;8.90;86.58;97637.78;5049211;28;20337;-73
2023/11/05 02:37:00;;;;;;;1.77;1.40;;;;;;;8.90;86.90;97640.41;5029187;28;20199;-73
2023/11/05 02:39:27;;;;;;;1.20;1.10;;;;;;;8.89;86.90;97641.56;5051993;28;20212;-73
2023/11/05 02:41:55;;;;;;;1.70;1.40;;;;;;;8.88;87.57;97631.41;5048416;28;20218;-72
2023/11/05 02:44:21;;;;;;;1.63;1.37;;;;;;;8.87;87.30;97630.69;5033332;28;21605;-73
2023/11/05 02:46:48;;;;;;;1.70;1.30;;;;;;;8.86;87.61;97626.53;5049894;28;20230;-73
2023/11/05 02:49:14;;;;;;;1.33;1.20;;;;;;;8.88;87.29;97634.03;5048438;28;20295;-72
2023/11/05 02:51:41;;;;;;;1.97;1.60;;;;;;;8.87;87.34;97625.41;5031089;28;20225;-73
2023/11/05 02:54:07;;;;;;;4.37;1.43;;;;;;;8.86;87.33;97617.91;5046617;28;20209;-73
2023/11/05 02:56:33;;;;;;;2.60;1.57;;;;;;;8.86;87.34;97623.91;5030411;28;20209;-73
2023/11/05 02:59:01;;;;;;;1.97;1.10;;;;;;;8.86;87.54;97617.91;5036455;28;20218;-73
2023/11/05 03:01:28;;;;;;;2.60;1.43;;;;;;;8.86;87.50;97612.63;5034118;28;20711;-73
2023/11/05 03:03:55;;;;;;;2.93;1.60;;;;;;;8.83;88.03;97622.06;5039355;28;20759;-73
2023/11/05 03:06:22;;;;;;;2.17;1.27;;;;;;;8.85;87.98;97619.03;5031858;28;20667;-73
2023/11/05 03:08:48;;;;;;;1.97;1.30;;;;;;;8.84;88.42;97617.53;5048396;28;20822;-73
2023/11/05 03:11:15;;;;;;;1.50;1.40;;;;;;;8.82;88.05;97625.81;5045291;28;20240;-73
2023/11/05 03:13:41;;;;;;;4.40;1.60;;;;;;;8.83;88.08;97626.56;5049502;28;20202;-73
2023/11/05 03:16:11;;;;;;;2.10;1.50;;;;;;;8.83;88.36;97614.16;5034772;28;20208;-73
2023/11/05 03:18:38;;;;;;;1.60;1.50;;;;;;;8.82;88.29;97615.28;5049805;28;20210;-73
2023/11/05 03:21:05;;;;;;;3.33;1.40;;;;;;;8.82;88.44;97617.94;5026720;28;20231;-73
2023/11/05 03:23:31;;;;;;;4.10;1.40;;;;;;;8.81;88.53;97616.41;5047233;28;22165;-73
2023/11/05 03:25:57;;;;;;;1.87;1.50;;;;;;;8.82;88.47;97617.16;5031867;28;20233;-73
2023/11/05 03:28:24;;;;;;;1.70;1.27;;;;;;;8.82;88.71;97604.00;5047347;28;20195;-73
2023/11/05 03:30:50;;;;;;;1.30;1.20;;;;;;;8.81;89.48;97608.50;5047129;28;20237;-73
2023/11/05 03:33:18;;;;;;;2.07;1.50;;;;;;;8.81;89.23;97605.88;5025922;28;20198;-73
2023/11/05 03:35:44;;;;;;;2.47;1.30;;;;;;;8.81;89.62;97603.25;5049800;28;20208;-73
2023/11/05 03:38:11;;;;;;;1.87;1.60;;;;;;;8.80;89.38;97598.41;5046178;28;20195;-73
2023/11/05 03:40:37;;;;;;;1.43;1.33;;;;;;;8.80;89.80;97596.50;5032534;28;20226;-73
2023/11/05 03:43:04;;;;;;;2.03;1.47;;;;;;;8.80;89.52;97601.03;5044791;28;20228;-73
2023/11/05 03:45:30;;;;;;;1.53;1.43;;;;;;;8.80;89.56;97603.66;5046962;28;20671;-73
2023/11/05 03:47:58;;;;;;;3.00;1.57;;;;;;;8.78;89.29;97600.66;5032809;28;20759;-73
2023/11/05 03:50:25;;;;;;;1.60;1.50;;;;;;;8.75;89.26;97599.53;5043323;28;20226;-73
2023/11/05 03:52:52;;;;;;;1.97;1.30;;;;;;;8.72;89.37;97605.59;5031019;28;20223;-73
2023/11/05 03:55:18;;;;;;;1.70;1.30;;;;;;;8.69;89.02;97602.97;5034244;28;20257;-73
2023/11/05 03:57:45;;;;;;;1.67;1.30;;;;;;;8.62;88.88;97601.13;5048132;28;20213;-73
2023/11/05 04:00:12;;;;;;;1.80;1.40;;;;;;;8.55;88.73;97600.41;5047043;28;20222;-73
2023/11/05 04:02:38;;;;;;;1.23;1.13;;;;;;;8.46;88.48;97586.91;5048738;28;20214;-73
2023/11/05 04:05:06;;;;;;;1.47;1.20;;;;;;;8.38;88.61;97591.47;5045486;28;20248;-73
2023/11/05 04:07:34;;;;;;;1.97;1.30;;;;;;;8.30;89.04;97590.00;5027190;28;20425;-73
2023/11/05 04:10:00;;;;;;;3.53;1.43;;;;;;;8.22;89.45;97588.53;5045148;28;20269;-73
2023/11/05 04:12:26;;;;;;;4.40;1.30;;;;;;;8.15;88.92;97588.53;5048140;28;20216;-73
2023/11/05 04:14:53;;;;;;;1.50;1.40;;;;;;;8.07;88.69;97594.94;5048994;28;20201;-73
2023/11/05 04:17:19;;;;;;;2.30;1.20;;;;;;;8.01;89.25;97591.19;5045600;28;20200;-73
2023/11/05 04:19:45;;;;;;;1.40;1.10;;;;;;;7.96;89.01;97596.09;5047284;28;20554;-73
2023/11/05 04:24:46;;;;;;;1.50;1.40;;;;;;;7.82;89.13;97577.75;5011022;28;20583;-70
2023/11/05 04:27:13;;;;;;;1.57;1.13;;;;;;;7.75;89.33;97568.00;5016991;28;20208;-70
2023/11/05 04:29:39;;;;;;;1.63;1.20;;;;;;;7.71;90.08;97569.88;5014179;28;22648;-70
2023/11/05 04:32:06;;;;;;;1.50;1.20;;;;;;;7.65;89.82;97563.53;5017086;28;20574;-71
2023/11/05 04:34:32;;;;;;;2.97;1.27;;;;;;;7.60;90.52;97555.25;5036357;28;20306;-71
2023/11/05 04:37:00;;;;;;;1.60;1.40;;;;;;;7.57;90.35;97561.28;5038843;28;20235;-71
2023/11/05 04:39:27;;;;;;;3.13;1.40;;;;;;;7.52;90.55;97553.78;5039179;28;20207;-71
2023/11/05 04:41:55;;;;;;;1.33;1.13;;;;;;;7.50;90.39;97556.06;5039836;28;20191;-70
2023/11/05 04:44:21;;;;;;;1.33;1.07;;;;;;;7.45;90.97;97554.53;5037178;28;20305;-69
2023/11/05 04:46:47;;;;;;;1.70;1.37;;;;;;;7.43;90.66;97553.44;5039834;28;20205;-71
2023/11/05 04:49:14;;;;;;;2.70;1.30;;;;;;;7.39;91.25;97545.56;5038620;28;20250;-69
2023/11/05 04:51:41;;;;;;;1.73;1.17;;;;;;;7.37;90.22;97549.69;5038329;28;20628;-70
2023/11/05 04:54:08;;;;;;;1.90;1.23;;;;;;;7.35;90.46;97549.31;5037544;28;20219;-69
2023/11/05 04:56:34;;;;;;;1.83;1.13;;;;;;;7.31;91.11;97541.44;5036960;28;20210;-71
2023/11/05 04:59:02;;;;;;;2.23;1.30;;;;;;;7.28;91.04;97542.19;5035992;28;20226;-71
2023/11/05 05:01:28;;;;;;;1.40;0.90;;;;;;;7.26;90.27;97543.69;5037411;28;20196;-71
2023/11/05 05:03:54;;;;;;;1.20;1.10;;;;;;;7.22;90.30;97545.56;5040184;28;20226;-71
2023/11/05 05:06:21;;;;;;;1.47;1.10;;;;;;;7.20;90.50;97550.47;5034921;28;20207;-70
2023/11/05 05:08:48;;;;;;;3.47;1.27;;;;;;;7.17;90.54;97548.56;5040512;28;20203;-71
2023/11/05 05:11:14;;;;;;;2.37;1.40;;;;;;;7.14;90.42;97550.06;5039926;28;20522;-70
2023/11/05 05:13:42;;;;;;;1.77;1.47;;;;;;;7.13;90.63;97550.44;5037699;28;20317;-70
2023/11/05 05:16:12;;;;;;;1.53;1.37;;;;;;;7.11;91.36;97544.84;5039038;28;20677;-69
2023/11/05 05:18:38;;;;;;;2.03;1.30;;;;;;;7.11;90.54;97547.47;5035806;28;20318;-70
2023/11/05 05:21:06;;;;;;;3.67;1.70;;;;;;;7.10;90.83;97546.69;5041171;28;20204;-70
2023/11/05 05:23:32;;;;;;;14.07;7.90;;;;;;;7.10;90.71;97540.72;5039297;28;20223;-70
2023/11/05 05:25:59;;;;;;;16.40;11.30;;;;;;;7.07;91.38;97544.84;5040456;28;20240;-71
2023/11/05 05:28:24;;;;;;;3.80;3.00;;;;;;;7.07;91.79;97542.22;5040806;28;21676;-71
2023/11/05 05:30:51;;;;;;;5.33;3.73;;;;;;;7.06;90.90;97553.06;5041359;28;20203;-70
2023/11/05 05:33:18;;;;;;;4.40;3.03;;;;;;;7.05;91.06;97539.19;5035167;28;20570;-70
2023/11/05 05:35:45;;;;;;;3.63;2.60;;;;;;;7.04;91.76;97537.69;5039496;28;20239;-70
2023/11/05 05:38:11;;;;;;;2.33;2.13;;;;;;;7.03;92.02;97530.97;5040594;28;20214;-71
2023/11/05 05:40:37;;;;;;;3.57;2.93;;;;;;;7.02;91.54;97537.34;5035810;28;20334;-71
2023/11/05 05:43:04;;;;;;;2.93;1.87;;;;;;;7.00;92.04;97536.94;5038825;28;20574;-71
2023/11/05 05:45:30;;;;;;;3.63;2.30;;;;;;;6.99;91.61;97538.06;5036992;28;20231;-70
2023/11/05 05:47:56;;;;;;;3.70;2.50;;;;;;;6.97;91.92;97523.84;5036343;28;20211;-69
2023/11/05 05:50:24;;;;;;;5.67;4.23;;;;;;;6.95;92.18;97512.97;5038218;28;20214;-71
2023/11/05 05:52:50;;;;;;;7.47;2.30;;;;;;;6.93;91.62;97505.47;5039180;28;20227;-71
2023/11/05 05:55:17;;;;;;;3.00;2.70;;;;;;;6.91;91.77;97505.13;5038935;28;20214;-70
2023/11/05 05:57:43;;;;;;;6.50;2.53;;;;;;;6.91;91.67;97506.97;5034611;28;20588;-71
2023/11/05 06:00:11;;;;;;;3.63;2.50;;;;;;;6.88;92.00;97510.38;5037908;28;20207;-70
2023/11/05 06:02:38;;;;;;;2.87;2.33;;;;;;;6.86;92.23;97515.22;5038041;28;20624;-71
2023/11/05 06:05:06;;;;;;;1.73;1.63;;;;;;;6.86;92.16;97515.97;5040127;28;20227;-71
2023/11/05 06:07:33;;;;;;;1.70;1.60;;;;;;;6.86;91.69;97509.97;5039722;28;20203;-70
2023/11/05 06:10:01;;;;;;;1.40;1.30;;;;;;;6.84;92.27;97510.34;5039514;28;20827;-71
2023/11/05 06:12:27;;;;;;;1.50;1.40;;;;;;;6.84;92.31;97505.09;5038719;28;20208;-71
2023/11/05 06:14:55;;;;;;;2.23;1.73;;;;;;;6.83;91.85;97511.47;5040539;28;20728;-71
2023/11/05 06:17:22;;;;;;;3.83;1.80;;;;;;;6.83;92.61;97500.25;5041564;28;20226;-69
2023/11/05 06:19:48;;;;;;;2.03;1.83;;;;;;;6.84;92.76;97512.25;5040046;28;20196;-70
2023/11/05 06:22:15;;;;;;;1.67;1.40;;;;;;;6.82;92.63;97509.97;5039888;28;20234;-70
2023/11/05 06:24:43;;;;;;;2.77;1.70;;;;;;;6.85;92.28;97508.47;5038950;28;20226;-69
2023/11/05 06:27:09;;;;;;;1.40;1.30;;;;;;;6.89;92.70;97509.25;5037366;28;20618;-71
2023/11/05 06:29:36;;;;;;;4.03;1.40;;;;;;;6.91;92.88;97499.88;5039778;28;20218;-69
2023/11/05 06:32:02;;;;;;;1.17;1.07;;;;;;;6.94;93.13;97501.72;5039369;28;20699;-70
2023/11/05 06:34:28;;;;;;;1.13;1.03;;;;;;;6.95;93.34;97495.34;5034204;28;20530;-71
2023/11/05 06:36:55;;;;;;;1.33;1.17;;;;;;;6.97;93.25;97498.38;5021525;28;20595;-70
2023/11/05 06:39:21;;;;;;;1.60;1.30;;;;;;;7.01;93.17;97500.97;5037615;28;20199;-71
2023/11/05 06:41:49;;;;;;;1.73;1.50;;;;;;;7.02;92.29;97497.22;5040318;28;20726;-71
2023/11/05 06:44:15;;;;;;;2.43;1.57;;;;;;;7.04;92.40;97497.63;5041716;28;20223;-69
2023/11/05 06:46:42;;;;;;;2.07;1.50;;;;;;;7.05;92.24;97501.75;5040204;28;20712;-70
2023/11/05 06:49:08;;;;;;;5.03;1.40;;;;;;;7.07;92.18;97497.63;5040954;28;20206;-68
2023/11/05 06:51:34;;;;;;;1.77;1.60;;;;;;;7.09;92.79;97494.63;5019836;28;20538;-71
2023/11/05 06:54:01;;;;;;;2.80;1.50;;;;;;;7.11;92.09;97492.34;5039032;28;20757;-71
2023/11/05 06:56:28;;;;;;;1.57;1.23;;;;;;;7.15;92.46;97495.72;5039014;28;20706;-71
2023/11/05 06:58:55;;;;;;;2.13;1.50;;;;;;;7.17;92.08;97502.09;5040500;28;20203;-71
2023/11/05 07:01:21;;;;;;;1.40;1.30;;;;;;;7.20;92.51;97500.59;5039043;28;20384;-71
2023/11/05 07:03:48;;;;;;;1.53;1.30;;;;;;;7.23;92.05;97497.97;5038520;28;20605;-71
2023/11/05 07:06:15;;;;;;;2.23;1.20;;;;;;;7.27;92.67;97492.72;5037383;28;20435;-71
2023/11/05 07:08:42;;;;;;;1.43;1.30;;;;;;;7.32;92.57;97487.06;5040333;28;20211;-71
2023/11/05 07:11:09;;;;;;;1.93;1.20;;;;;;;7.35;91.97;97484.44;5038214;28;20700;-69
2023/11/05 07:13:35;;;;;;;3.00;1.43;;;;;;;7.37;91.57;97482.19;5035792;28;20226;-71
2023/11/05 07:16:04;;;;;;;1.83;1.27;;;;;;;7.42;91.92;97483.69;5037580;28;20294;-69
2023/11/05 07:18:30;;;;;;;1.23;1.13;;;;;;;7.46;91.42;97479.19;5036922;28;20235;-71
2023/11/05 07:20:57;;;;;;;1.43;1.00;;;;;;;7.49;91.73;97481.03;5039492;28;20209;-71
2023/11/05 07:23:23;;;;;;;2.10;1.40;;;;;;;7.52;91.31;97496.81;5039112;28;20230;-71
2023/11/05 07:25:50;;;;;;;1.70;1.23;;;;;;;7.58;91.45;97497.13;5037796;28;20562;-70
2023/11/05 07:28:16;;;;;;;1.27;1.17;;;;;;;7.60;92.04;97498.25;5039122;28;20251;-71
2023/11/05 07:30:43;;;;;;;3.03;1.17;;;;;;;7.64;90.68;97508.75;5036760;28;20732;-70
2023/11/05 07:33:12;;;;;;;2.13;1.30;;;;;;;7.69;90.87;97501.25;5031077;28;20224;-70
2023/11/05 07:35:39;;;;;;;2.00;1.30;;;;;;;7.75;91.25;97506.84;5039737;28;20195;-71
2023/11/05 07:38:08;;;;;;;1.90;1.30;;;;;;;7.79;90.57;97500.47;5040214;28;20195;-72
2023/11/05 07:40:34;;;;;;;2.53;1.17;;;;;;;7.87;90.82;97503.81;5035282;28;20226;-71
2023/11/05 07:43:00;;;;;;;1.97;1.30;;;;;;;7.94;90.09;97509.78;5041510;28;20234;-71
2023/11/05 07:45:27;;;;;;;2.60;1.00;;;;;;;8.02;90.23;97502.63;5036884;28;20219;-71
2023/11/05 07:47:53;;;;;;;1.37;1.27;;;;;;;8.09;90.09;97495.47;5037534;28;20744;-71
2023/11/05 07:50:22;;;;;;;2.20;1.10;;;;;;;8.18;90.39;97492.41;5036984;28;20207;-70
2023/11/05 07:52:48;;;;;;;2.47;1.47;;;;;;;8.24;90.29;97496.88;5038352;28;20227;-71
2023/11/05 07:55:14;;;;;;;3.13;1.30;;;;;;;8.35;88.80;97502.09;5037289;28;20200;-70
2023/11/05 07:57:43;;;;;;;2.63;1.20;;;;;;;8.41;89.43;97503.19;5032583;28;20207;-69
2023/11/05 08:00:15;;;;;;;1.10;1.00;;;;;;;8.46;89.09;97506.16;5038834;28;20299;-71
2023/11/05 08:02:41;;;;;;;2.00;1.20;;;;;;;8.54;89.66;97509.50;5040604;28;20238;-71
2023/11/05 08:05:08;;;;;;;4.93;1.50;;;;;;;8.61;89.36;97502.31;5040314;28;20227;-71
2023/11/05 08:07:36;;;;;;;1.13;1.03;;;;;;;8.67;88.87;97500.78;5038451;28;20292;-71
2023/11/05 08:10:06;;;;;;;1.30;1.00;;;;;;;8.76;89.58;97500.34;5026720;28;20208;-70
2023/11/05 08:12:32;;;;;;;3.07;2.00;;;;;;;8.87;88.69;97507.00;5040600;28;20218;-70
2023/11/05 08:14:58;;;;;;;2.00;1.53;;;;;;;9.03;87.17;97506.50;5042773;28;20199;-71
2023/11/05 08:17:25;;;;;;;1.50;1.20;;;;;;;9.15;88.59;97508.66;5043800;28;20587;-71
2023/11/05 08:19:51;;;;;;;3.20;1.90;;;;;;;9.28;89.20;97507.78;5039650;28;20205;-71
2023/11/05 08:22:18;;;;;;;6.30;1.97;;;;;;;9.37;87.82;97512.59;5041821;28;20235;-71
2023/11/05 08:24:47;;;;;;;1.77;1.10;;;;;;;9.48;87.04;97503.44;5041580;28;20210;-70
2023/11/05 08:27:14;;;;;;;3.00;1.63;;;;;;;9.61;85.27;97512.34;5042154;28;20219;-71
2023/11/05 08:29:40;;;;;;;1.20;1.00;;;;;;;9.69;85.79;97513.75;5042426;28;20294;-69
2023/11/05 08:32:07;;;;;;;1.90;1.50;;;;;;;9.77;85.77;97507.28;5041912;28;20210;-71
2023/11/05 08:34:34;;;;;;;2.10;1.27;;;;;;;9.88;85.64;97513.16;5031029;28;20234;-71
2023/11/05 08:37:00;;;;;;;1.83;1.30;;;;;;;9.97;84.89;97505.53;5038187;28;20264;-71
2023/11/05 08:39:27;;;;;;;1.53;1.00;;;;;;;10.08;83.41;97490.38;5040979;28;20208;-72
2023/11/05 08:41:56;;;;;;;2.60;1.60;;;;;;;10.16;84.66;97494.41;5043278;28;20242;-71
2023/11/05 08:44:22;;;;;;;1.67;1.10;;;;;;;10.24;84.44;97492.44;5041676;28;20255;-71
2023/11/05 08:46:48;;;;;;;4.73;1.67;;;;;;;10.33;83.10;97503.97;5040723;28;20588;-71
2023/11/05 08:49:15;;;;;;;2.00;1.60;;;;;;;10.40;83.23;97493.31;5042384;28;20200;-70
2023/11/05 08:51:41;;;;;;;2.83;1.27;;;;;;;10.47;83.07;97500.41;5040495;28;20226;-71
2023/11/05 08:54:08;;;;;;;2.53;1.30;;;;;;;10.55;84.66;97483.31;5042552;28;20761;-71
2023/11/05 08:56:34;;;;;;;1.40;1.30;;;;;;;10.62;82.59;97488.50;5041045;28;20294;-69
2023/11/05 08:59:02;;;;;;;2.50;1.80;;;;;;;10.70;82.21;97485.34;5043428;28;20209;-71
2023/11/05 09:01:29;;;;;;;3.50;1.70;;;;;;;10.83;84.87;97488.19;5039351;28;20231;-71
2023/11/05 09:03:55;;;;;;;1.13;1.03;;;;;;;10.90;82.28;97482.78;5041020;28;20660;-71
2023/11/05 09:06:23;;;;;;;1.20;1.10;;;;;;;10.96;81.43;97478.53;5041335;28;20229;-70
2023/11/05 09:08:50;;;;;;;1.17;1.03;;;;;;;11.02;81.59;97492.78;5040080;28;20674;-71
2023/11/05 09:11:16;;;;;;;2.17;1.37;;;;;;;11.07;80.92;97476.47;5040603;28;20202;-70
2023/11/05 09:13:42;;;;;;;0.80;0.80;;;;;;;11.14;82.76;97484.28;5022969;28;20625;-71
2023/11/05 09:16:11;;;;;;;1.20;0.97;;;;;;;11.19;83.46;97486.44;5041943;28;20561;-71
2023/11/05 09:18:37;;;;;;;5.07;2.93;;;;;;;11.23;82.57;97487.16;5040965;28;20237;-71
2023/11/05 09:21:06;;;;;;;2.20;1.57;;;;;;;11.25;82.22;97482.94;5044525;28;20206;-69
2023/11/05 09:23:32;;;;;;;2.73;1.80;;;;;;;11.29;82.17;97490.81;5041960;28;20234;-71
2023/11/05 09:25:59;;;;;;;4.30;1.90;;;;;;;11.34;82.01;97485.06;5036733;28;20250;-71
2023/11/05 09:28:25;;;;;;;1.90;1.13;;;;;;;11.40;81.03;97486.84;5024948;28;20202;-70
2023/11/05 09:30:52;;;;;;;3.97;1.17;;;;;;;11.46;80.91;97476.53;5040592;28;20218;-71
2023/11/05 09:33:21;;;;;;;1.40;1.10;;;;;;;11.53;80.32;97476.41;5040206;28;20219;-71
2023/11/05 09:35:47;;;;;;;3.37;1.40;;;;;;;11.56;79.13;97478.25;5042072;28;20195;-71
2023/11/05 09:38:14;;;;;;;1.20;1.10;;;;;;;11.60;81.27;97477.03;5040328;28;20210;-68
2023/11/05 09:40:40;;;;;;;1.00;0.90;;;;;;;11.62;79.22;97476.63;5039167;28;20213;-71
2023/11/05 09:43:10;;;;;;;1.70;1.10;;;;;;;11.63;79.77;97481.53;5040916;28;20230;-71
2023/11/05 09:45:38;;;;;;;1.77;1.10;;;;;;;11.64;79.35;97480.38;5041143;28;20574;-69
2023/11/05 09:48:06;;;;;;;1.57;1.00;;;;;;;11.66;80.65;97474.69;5039716;28;20357;-69
2023/11/05 09:50:35;;;;;;;2.53;1.20;;;;;;;11.69;78.75;97477.25;5038002;28;20191;-71
2023/11/05 09:53:05;;;;;;;1.20;1.10;;;;;;;11.73;77.96;97474.53;5040430;28;20241;-71
2023/11/05 09:55:32;;;;;;;1.90;1.23;;;;;;;11.80;79.12;97474.41;5040875;28;20200;-71
2023/11/05 09:58:00;;;;;;;1.60;1.30;;;;;;;11.84;78.32;97472.44;5041841;28;20941;-70
2023/11/05 10:00:27;;;;;;;3.47;2.43;;;;;;;11.89;78.56;97474.59;5036093;28;20669;-71
2023/11/05 10:02:55;;;;;;;3.57;2.27;;;;;;;11.94;77.34;97474.88;5037612;28;20230;-71
2023/11/05 10:05:21;;;;;;;5.27;1.50;;;;;;;11.99;81.33;97481.56;5039615;28;20229;-70
2023/11/05 10:07:50;;;;;;;4.30;1.00;;;;;;;12.05;77.16;97480.69;5038894;28;20262;-71
2023/11/05 10:10:17;;;;;;;1.33;1.20;;;;;;;12.09;75.99;97480.59;5039624;28;20211;-71
2023/11/05 10:12:43;;;;;;;1.43;1.10;;;;;;;12.14;76.35;97477.47;5040100;28;20231;-71
2023/11/05 10:15:10;;;;;;;1.13;0.97;;;;;;;12.18;76.92;97484.19;5042785;28;20286;-72
2023/11/05 10:17:37;;;;;;;1.47;1.10;;;;;;;12.23;78.68;97475.03;5041081;28;20713;-71
2023/11/05 10:20:04;;;;;;;1.30;1.10;;;;;;;12.26;77.58;97479.50;5039212;28;20207;-71
2023/11/05 10:22:30;;;;;;;1.53;1.07;;;;;;;12.31;78.37;97479.03;5040864;28;20226;-69
2023/11/05 10:24:58;;;;;;;1.27;1.13;;;;;;;12.35;77.11;97479.66;5039204;28;20573;-70
2023/11/05 10:27:29;;;;;;;1.97;1.63;;;;;;;12.42;76.55;97488.19;5040729;28;20203;-71
2023/11/05 10:29:57;;;;;;;4.53;2.23;;;;;;;12.47;76.47;97484.34;5040377;28;20669;-71
2023/11/05 10:32:23;;;;;;;11.37;5.70;;;;;;;12.51;76.59;97477.81;5040195;28;20207;-71
2023/11/05 10:34:51;;;;;;;5.03;3.70;;;;;;;12.56;77.10;97476.56;5038556;28;20478;-72
2023/11/05 10:37:17;;;;;;;2.40;1.73;;;;;;;12.60;78.75;97483.28;5038628;28;20223;-69
2023/11/05 10:39:44;;;;;;;3.13;1.83;;;;;;;12.64;78.70;97478.66;5035351;28;20215;-71
2023/11/05 10:42:12;;;;;;;4.03;1.47;;;;;;;12.67;80.19;97485.00;5040930;28;20207;-70
2023/11/05 10:44:39;;;;;;;3.00;1.60;;;;;;;12.72;78.20;97482.63;5033387;28;20248;-72
2023/11/05 10:47:07;;;;;;;2.00;1.20;;;;;;;12.76;74.35;97477.22;5039551;28;20242;-71
2023/11/05 10:49:36;;;;;;;1.30;0.97;;;;;;;12.82;73.93;97476.31;5035774;28;20252;-70
2023/11/05 10:52:03;;;;;;;1.63;1.00;;;;;;;12.89;75.02;97478.78;5040254;28;20203;-69
2023/11/05 10:54:29;;;;;;;1.37;0.90;;;;;;;12.95;77.24;97473.75;5035921;28;20224;-71
2023/11/05 10:56:55;;;;;;;1.47;0.80;;;;;;;13.01;75.07;97478.16;5035789;28;20203;-71
2023/11/05 10:59:37;;;;;;;2.50;1.60;;;;;;;13.05;72.68;97475.44;5037655;28;20712;-71
2023/11/05 11:02:06;;;;;;;1.70;1.30;;;;;;;13.09;75.01;97476.81;5034061;28;20213;-71
2023/11/05 11:04:32;;;;;;;2.63;1.50;;;;;;;13.12;73.74;97475.25;5036224;28;20594;-71
2023/11/05 11:06:59;;;;;;;3.27;2.20;;;;;;;13.15;73.45;97463.81;5037244;28;20226;-70
2023/11/05 11:09:27;;;;;;;7.13;4.33;;;;;;;13.19;76.20;97467.88;5015399;28;20237;-71
2023/11/05 11:11:54;;;;;;;2.10;1.53;;;;;;;13.22;74.29;97479.53;5027839;28;20667;-71
2023/11/05 11:14:24;;;;;;;2.90;2.60;;;;;;;13.25;73.71;97474.16;5034230;28;20223;-71
2023/11/05 11:16:51;;;;;;;1.63;1.17;;;;;;;13.27;72.57;97476.38;5036303;28;20637;-70
2023/11/05 11:19:19;;;;;;;1.77;1.23;;;;;;;13.31;72.67;97472.47;5043219;28;20738;-71
2023/11/05 11:21:50;;;;;;;1.57;1.10;;;;;;;13.35;73.69;97480.34;5037382;28;20460;-71
2023/11/05 11:24:43;;;;;;;1.30;1.00;;;;;;;13.35;75.73;97472.41;5041502;28;20235;-71
2023/11/05 11:27:14;;;;;;;8.90;1.20;;;;;;;13.37;75.11;97475.38;5041903;28;20213;-71
2023/11/05 11:29:42;;;;;;;1.63;0.93;;;;;;;13.40;75.90;97475.28;5036574;28;20555;-69
2023/11/05 11:32:10;;;;;;;6.83;3.93;;;;;;;13.45;75.58;97476.69;5037935;28;20196;-70
2023/11/05 11:34:36;;;;;;;4.17;2.33;;;;;;;13.48;75.65;97476.59;5039666;28;20208;-71
2023/11/05 11:37:04;;;;;;;9.90;5.60;;;;;;;13.50;75.32;97476.19;5039709;28;20204;-70
2023/11/05 11:39:31;;;;;;;3.70;1.40;;;;;;;13.49;73.23;97477.31;5036628;28;20212;-70